sensor_id;sensor_type;location;lat;lon;timestamp;P1;durP1;ratioP1;P2;durP2;ratioP2
84021;SDS011;74108;48.636;9.492;2023-11-19T00:00:39;4.25;;;2.53;;
84021;SDS011;74108;48.636;9.492;2023-11-19T00:03:05;4.32;;;2.58;;
84021;SDS011;74108;48.636;9.492;2023-11-19T00:05:31;4.63;;;2.40;;
84021;SDS011;74108;48.636;9.492;2023-11-19T00:07:56;5.15;;;2.40;;
84021;SDS011;74108;48.636;9.492;2023-11-19T00:10:24;4.00;;;2.50;;
84021;SDS011;74108;48.636;9.492;2023-11-19T00:12:49;3.70;;;2.50;;
84021;SDS011;74108;48.636;9.492;2023-11-19T00:15:15;3.30;;;2.47;;
84021;SDS011;74108;48.636;9.492;2023-11-19T00:17:44;4.43;;;2.72;;
84021;SDS011;74108;48.636;9.492;2023-11-19T00:20:11;3.60;;;2.75;;
84021;SDS011;74108;48.636;9.492;2023-11-19T00:22:40;4.43;;;2.95;;
84021;SDS011;74108;48.636;9.492;2023-11-19T00:25:07;4.93;;;3.00;;
84021;SDS011;74108;48.636;9.492;2023-11-19T00:27:33;5.10;;;3.15;;
84021;SDS011;74108;48.636;9.492;2023-11-19T00:29:59;5.28;;;3.15;;
84021;SDS011;74108;48.636;9.492;2023-11-19T00:32:24;4.20;;;2.75;;
84021;SDS011;74108;48.636;9.492;2023-11-19T00:34:49;5.07;;;3.03;;
84021;SDS011;74108;48.636;9.492;2023-11-19T00:37:16;6.38;;;3.10;;
84021;SDS011;74108;48.636;9.492;2023-11-19T00:39:41;4.35;;;2.60;;
84021;SDS011;74108;48.636;9.492;2023-11-19T00:42:08;4.65;;;2.58;;
84021;SDS011;74108;48.636;9.492;2023-11-19T00:44:35;4.95;;;2.75;;
84021;SDS011;74108;48.636;9.492;2023-11-19T00:47:00;5.78;;;2.80;;
84021;SDS011;74108;48.636;9.492;2023-11-19T00:49:26;3.85;;;2.40;;
84021;SDS011;74108;48.636;9.492;2023-11-19T00:51:51;3.95;;;2.33;;
84021;SDS011;74108;48.636;9.492;2023-11-19T00:54:16;3.88;;;2.30;;
84021;SDS011;74108;48.636;9.492;2023-11-19T00:56:42;4.30;;;2.60;;
84021;SDS011;74108;48.636;9.492;2023-11-19T00:59:07;4.13;;;2.60;;
84021;SDS011;74108;48.636;9.492;2023-11-19T01:01:33;3.95;;;2.55;;
84021;SDS011;74108;48.636;9.492;2023-11-19T01:03:59;3.35;;;2.35;;
84021;SDS011;74108;48.636;9.492;2023-11-19T01:06:31;3.38;;;2.25;;
84021;SDS011;74108;48.636;9.492;2023-11-19T01:08:57;4.43;;;2.70;;
84021;SDS011;74108;48.636;9.492;2023-11-19T01:11:23;3.42;;;2.60;;
84021;SDS011;74108;48.636;9.492;2023-11-19T01:13:49;6.15;;;2.80;;
84021;SDS011;74108;48.636;9.492;2023-11-19T01:16:15;4.45;;;2.90;;
84021;SDS011;74108;48.636;9.492;2023-11-19T01:18:41;3.70;;;2.53;;
84021;SDS011;74108;48.636;9.492;2023-11-19T01:21:06;4.28;;;2.63;;
84021;SDS011;74108;48.636;9.492;2023-11-19T01:23:32;4.55;;;2.53;;
84021;SDS011;74108;48.636;9.492;2023-11-19T01:26:00;5.82;;;3.05;;
84021;SDS011;74108;48.636;9.492;2023-11-19T01:28:26;4.03;;;2.65;;
84021;SDS011;74108;48.636;9.492;2023-11-19T01:30:56;4.80;;;2.92;;
84021;SDS011;74108;48.636;9.492;2023-11-19T01:33:21;4.05;;;2.40;;
84021;SDS011;74108;48.636;9.492;2023-11-19T01:35:46;4.32;;;2.80;;
84021;SDS011;74108;48.636;9.492;2023-11-19T01:38:12;3.90;;;2.70;;
84021;SDS011;74108;48.636;9.492;2023-11-19T01:40:37;4.18;;;2.67;;
84021;SDS011;74108;48.636;9.492;2023-11-19T01:43:02;4.00;;;2.65;;
84021;SDS011;74108;48.636;9.492;2023-11-19T01:45:29;4.65;;;2.80;;
84021;SDS011;74108;48.636;9.492;2023-11-19T01:47:56;5.05;;;2.45;;
84021;SDS011;74108;48.636;9.492;2023-11-19T01:50:22;2.30;;;1.50;;
84021;SDS011;74108;48.636;9.492;2023-11-19T01:52:50;2.00;;;1.20;;
84021;SDS011;74108;48.636;9.492;2023-11-19T01:55:22;1.70;;;1.20;;
84021;SDS011;74108;48.636;9.492;2023-11-19T01:57:49;1.50;;;1.00;;
84021;SDS011;74108;48.636;9.492;2023-11-19T02:00:16;0.75;;;0.65;;
84021;SDS011;74108;48.636;9.492;2023-11-19T02:05:11;0.57;;;0.57;;
84021;SDS011;74108;48.636;9.492;2023-11-19T02:07:37;0.77;;;0.65;;
84021;SDS011;74108;48.636;9.492;2023-11-19T02:10:03;0.60;;;0.60;;
84021;SDS011;74108;48.636;9.492;2023-11-19T02:12:30;1.50;;;0.82;;
84021;SDS011;74108;48.636;9.492;2023-11-19T02:14:59;2.63;;;1.10;;
84021;SDS011;74108;48.636;9.492;2023-11-19T02:17:25;1.30;;;1.10;;
84021;SDS011;74108;48.636;9.492;2023-11-19T02:19:52;3.38;;;1.30;;
84021;SDS011;74108;48.636;9.492;2023-11-19T02:22:18;0.95;;;0.70;;
84021;SDS011;74108;48.636;9.492;2023-11-19T02:24:43;1.38;;;1.10;;
84021;SDS011;74108;48.636;9.492;2023-11-19T02:27:14;1.40;;;1.05;;
84021;SDS011;74108;48.636;9.492;2023-11-19T02:29:46;2.13;;;1.25;;
84021;SDS011;74108;48.636;9.492;2023-11-19T02:32:12;1.35;;;1.00;;
84021;SDS011;74108;48.636;9.492;2023-11-19T02:34:41;1.13;;;1.00;;
84021;SDS011;74108;48.636;9.492;2023-11-19T02:37:06;2.45;;;1.13;;
84021;SDS011;74108;48.636;9.492;2023-11-19T02:39:31;1.50;;;1.10;;
84021;SDS011;74108;48.636;9.492;2023-11-19T02:41:57;3.05;;;1.45;;
84021;SDS011;74108;48.636;9.492;2023-11-19T02:44:22;3.13;;;1.35;;
84021;SDS011;74108;48.636;9.492;2023-11-19T02:46:48;2.30;;;1.23;;
84021;SDS011;74108;48.636;9.492;2023-11-19T02:49:14;1.00;;;0.80;;
84021;SDS011;74108;48.636;9.492;2023-11-19T02:51:40;2.05;;;1.20;;
84021;SDS011;74108;48.636;9.492;2023-11-19T02:54:05;0.70;;;0.60;;
84021;SDS011;74108;48.636;9.492;2023-11-19T02:56:31;1.23;;;0.70;;
84021;SDS011;74108;48.636;9.492;2023-11-19T02:59:00;1.20;;;0.90;;
84021;SDS011;74108;48.636;9.492;2023-11-19T03:01:33;1.08;;;0.80;;
84021;SDS011;74108;48.636;9.492;2023-11-19T03:04:00;1.13;;;0.90;;
84021;SDS011;74108;48.636;9.492;2023-11-19T03:06:27;1.73;;;0.90;;
84021;SDS011;74108;48.636;9.492;2023-11-19T03:08:54;1.05;;;0.90;;
84021;SDS011;74108;48.636;9.492;2023-11-19T03:11:20;2.05;;;1.00;;
84021;SDS011;74108;48.636;9.492;2023-11-19T03:13:45;4.03;;;1.60;;
84021;SDS011;74108;48.636;9.492;2023-11-19T03:16:12;1.98;;;1.10;;
84021;SDS011;74108;48.636;9.492;2023-11-19T03:18:37;2.75;;;0.95;;
84021;SDS011;74108;48.636;9.492;2023-11-19T03:21:04;1.27;;;0.95;;
84021;SDS011;74108;48.636;9.492;2023-11-19T03:23:35;1.35;;;1.00;;
84021;SDS011;74108;48.636;9.492;2023-11-19T03:26:01;2.47;;;1.00;;
84021;SDS011;74108;48.636;9.492;2023-11-19T03:28:30;1.17;;;0.70;;
84021;SDS011;74108;48.636;9.492;2023-11-19T03:30:56;1.80;;;1.10;;
84021;SDS011;74108;48.636;9.492;2023-11-19T03:33:21;0.85;;;0.82;;
84021;SDS011;74108;48.636;9.492;2023-11-19T03:35:47;1.95;;;1.10;;
84021;SDS011;74108;48.636;9.492;2023-11-19T03:38:12;2.50;;;1.00;;
84021;SDS011;74108;48.636;9.492;2023-11-19T03:40:39;1.92;;;0.77;;
84021;SDS011;74108;48.636;9.492;2023-11-19T03:43:05;1.10;;;0.90;;
84021;SDS011;74108;48.636;9.492;2023-11-19T03:45:31;1.05;;;0.95;;
84021;SDS011;74108;48.636;9.492;2023-11-19T03:47:56;1.45;;;1.15;;
84021;SDS011;74108;48.636;9.492;2023-11-19T03:50:21;1.67;;;0.80;;
84021;SDS011;74108;48.636;9.492;2023-11-19T03:52:47;1.42;;;1.00;;
84021;SDS011;74108;48.636;9.492;2023-11-19T03:55:13;1.30;;;1.10;;
84021;SDS011;74108;48.636;9.492;2023-11-19T03:57:38;1.92;;;1.25;;
84021;SDS011;74108;48.636;9.492;2023-11-19T04:00:04;2.67;;;1.30;;
84021;SDS011;74108;48.636;9.492;2023-11-19T04:02:35;2.15;;;1.20;;
84021;SDS011;74108;48.636;9.492;2023-11-19T04:05:01;1.20;;;1.00;;
84021;SDS011;74108;48.636;9.492;2023-11-19T04:07:28;1.55;;;1.05;;
84021;SDS011;74108;48.636;9.492;2023-11-19T04:09:53;1.63;;;1.00;;
84021;SDS011;74108;48.636;9.492;2023-11-19T04:12:18;0.63;;;0.60;;
84021;SDS011;74108;48.636;9.492;2023-11-19T04:14:44;2.00;;;0.80;;
84021;SDS011;74108;48.636;9.492;2023-11-19T04:17:09;0.63;;;0.63;;
84021;SDS011;74108;48.636;9.492;2023-11-19T04:19:35;0.82;;;0.70;;
84021;SDS011;74108;48.636;9.492;2023-11-19T04:22:00;1.60;;;0.70;;
84021;SDS011;74108;48.636;9.492;2023-11-19T04:24:27;2.20;;;0.68;;
84021;SDS011;74108;48.636;9.492;2023-11-19T04:26:53;0.82;;;0.77;;
84021;SDS011;74108;48.636;9.492;2023-11-19T04:29:18;1.05;;;0.80;;
84021;SDS011;74108;48.636;9.492;2023-11-19T04:31:45;0.77;;;0.65;;
84021;SDS011;74108;48.636;9.492;2023-11-19T04:34:11;1.10;;;0.80;;
84021;SDS011;74108;48.636;9.492;2023-11-19T04:36:37;0.80;;;0.80;;
84021;SDS011;74108;48.636;9.492;2023-11-19T04:39:05;1.95;;;0.70;;
84021;SDS011;74108;48.636;9.492;2023-11-19T04:41:51;1.70;;;0.55;;
84021;SDS011;74108;48.636;9.492;2023-11-19T04:44:19;0.60;;;0.60;;
84021;SDS011;74108;48.636;9.492;2023-11-19T04:46:45;0.68;;;0.60;;
84021;SDS011;74108;48.636;9.492;2023-11-19T04:49:12;0.75;;;0.57;;
84021;SDS011;74108;48.636;9.492;2023-11-19T04:51:42;0.35;;;0.35;;
84021;SDS011;74108;48.636;9.492;2023-11-19T04:54:09;0.38;;;0.38;;
84021;SDS011;74108;48.636;9.492;2023-11-19T04:56:35;0.47;;;0.47;;
84021;SDS011;74108;48.636;9.492;2023-11-19T04:59:02;1.38;;;0.60;;
84021;SDS011;74108;48.636;9.492;2023-11-19T05:01:28;1.00;;;0.63;;
84021;SDS011;74108;48.636;9.492;2023-11-19T05:03:56;0.50;;;0.50;;
84021;SDS011;74108;48.636;9.492;2023-11-19T05:06:25;0.50;;;0.50;;
84021;SDS011;74108;48.636;9.492;2023-11-19T05:11:17;0.43;;;0.40;;
84021;SDS011;74108;48.636;9.492;2023-11-19T05:13:44;0.93;;;0.60;;
84021;SDS011;74108;48.636;9.492;2023-11-19T05:16:10;0.93;;;0.40;;
84021;SDS011;74108;48.636;9.492;2023-11-19T05:18:39;0.35;;;0.35;;
84021;SDS011;74108;48.636;9.492;2023-11-19T05:21:05;0.82;;;0.43;;
84021;SDS011;74108;48.636;9.492;2023-11-19T05:23:32;2.22;;;0.63;;
84021;SDS011;74108;48.636;9.492;2023-11-19T05:25:59;1.05;;;0.30;;
84021;SDS011;74108;48.636;9.492;2023-11-19T05:28:25;0.40;;;0.40;;
84021;SDS011;74108;48.636;9.492;2023-11-19T05:30:51;0.68;;;0.68;;
84021;SDS011;74108;48.636;9.492;2023-11-19T05:33:16;0.30;;;0.30;;
84021;SDS011;74108;48.636;9.492;2023-11-19T05:35:42;0.43;;;0.40;;
84021;SDS011;74108;48.636;9.492;2023-11-19T05:38:07;0.20;;;0.20;;
84021;SDS011;74108;48.636;9.492;2023-11-19T05:40:34;0.30;;;0.30;;
84021;SDS011;74108;48.636;9.492;2023-11-19T05:43:00;0.40;;;0.40;;
84021;SDS011;74108;48.636;9.492;2023-11-19T05:45:25;0.82;;;0.43;;
84021;SDS011;74108;48.636;9.492;2023-11-19T05:47:51;0.13;;;0.13;;
84021;SDS011;74108;48.636;9.492;2023-11-19T05:50:17;0.40;;;0.40;;
84021;SDS011;74108;48.636;9.492;2023-11-19T05:52:43;0.40;;;0.40;;
84021;SDS011;74108;48.636;9.492;2023-11-19T05:55:09;0.13;;;0.13;;
84021;SDS011;74108;48.636;9.492;2023-11-19T05:57:35;0.20;;;0.20;;
84021;SDS011;74108;48.636;9.492;2023-11-19T06:00:03;0.60;;;0.60;;
84021;SDS011;74108;48.636;9.492;2023-11-19T06:02:34;0.50;;;0.30;;
84021;SDS011;74108;48.636;9.492;2023-11-19T06:04:59;0.85;;;0.43;;
84021;SDS011;74108;48.636;9.492;2023-11-19T06:07:25;0.20;;;0.20;;
84021;SDS011;74108;48.636;9.492;2023-11-19T06:09:50;0.47;;;0.45;;
84021;SDS011;74108;48.636;9.492;2023-11-19T06:12:17;0.38;;;0.38;;
84021;SDS011;74108;48.636;9.492;2023-11-19T06:14:42;0.90;;;0.50;;
84021;SDS011;74108;48.636;9.492;2023-11-19T06:17:07;0.30;;;0.30;;
84021;SDS011;74108;48.636;9.492;2023-11-19T06:19:33;0.30;;;0.30;;
84021;SDS011;74108;48.636;9.492;2023-11-19T06:21:59;0.80;;;0.45;;
84021;SDS011;74108;48.636;9.492;2023-11-19T06:24:24;0.40;;;0.40;;
84021;SDS011;74108;48.636;9.492;2023-11-19T06:26:50;1.10;;;0.57;;
84021;SDS011;74108;48.636;9.492;2023-11-19T06:29:15;0.52;;;0.40;;
84021;SDS011;74108;48.636;9.492;2023-11-19T06:31:44;0.70;;;0.47;;
84021;SDS011;74108;48.636;9.492;2023-11-19T06:34:10;0.30;;;0.30;;
84021;SDS011;74108;48.636;9.492;2023-11-19T06:36:36;0.55;;;0.30;;
84021;SDS011;74108;48.636;9.492;2023-11-19T06:39:01;0.55;;;0.50;;
84021;SDS011;74108;48.636;9.492;2023-11-19T06:41:27;0.35;;;0.35;;
84021;SDS011;74108;48.636;9.492;2023-11-19T06:43:54;0.30;;;0.20;;
84021;SDS011;74108;48.636;9.492;2023-11-19T06:46:19;0.45;;;0.38;;
84021;SDS011;74108;48.636;9.492;2023-11-19T06:48:45;1.92;;;0.57;;
84021;SDS011;74108;48.636;9.492;2023-11-19T06:51:11;0.85;;;0.60;;
84021;SDS011;74108;48.636;9.492;2023-11-19T06:53:37;1.33;;;0.40;;
84021;SDS011;74108;48.636;9.492;2023-11-19T06:56:02;1.27;;;0.63;;
84021;SDS011;74108;48.636;9.492;2023-11-19T06:58:32;0.43;;;0.43;;
84021;SDS011;74108;48.636;9.492;2023-11-19T07:01:00;0.30;;;0.30;;
84021;SDS011;74108;48.636;9.492;2023-11-19T07:03:26;0.25;;;0.22;;
84021;SDS011;74108;48.636;9.492;2023-11-19T07:05:51;0.40;;;0.30;;
84021;SDS011;74108;48.636;9.492;2023-11-19T07:08:16;0.55;;;0.45;;
84021;SDS011;74108;48.636;9.492;2023-11-19T07:10:42;0.43;;;0.43;;
84021;SDS011;74108;48.636;9.492;2023-11-19T07:13:07;0.43;;;0.43;;
84021;SDS011;74108;48.636;9.492;2023-11-19T07:15:33;0.52;;;0.25;;
84021;SDS011;74108;48.636;9.492;2023-11-19T07:17:58;0.63;;;0.40;;
84021;SDS011;74108;48.636;9.492;2023-11-19T07:20:25;0.98;;;0.60;;
84021;SDS011;74108;48.636;9.492;2023-11-19T07:25:19;0.45;;;0.40;;
84021;SDS011;74108;48.636;9.492;2023-11-19T07:27:45;0.20;;;0.20;;
84021;SDS011;74108;48.636;9.492;2023-11-19T07:30:13;0.45;;;0.43;;
84021;SDS011;74108;48.636;9.492;2023-11-19T07:32:39;0.50;;;0.50;;
84021;SDS011;74108;48.636;9.492;2023-11-19T07:35:04;0.50;;;0.50;;
84021;SDS011;74108;48.636;9.492;2023-11-19T07:37:30;0.57;;;0.50;;
84021;SDS011;74108;48.636;9.492;2023-11-19T07:39:56;0.95;;;0.57;;
84021;SDS011;74108;48.636;9.492;2023-11-19T07:42:21;1.17;;;0.50;;
84021;SDS011;74108;48.636;9.492;2023-11-19T07:44:47;0.43;;;0.43;;
84021;SDS011;74108;48.636;9.492;2023-11-19T07:47:13;0.45;;;0.30;;
84021;SDS011;74108;48.636;9.492;2023-11-19T07:49:38;0.40;;;0.40;;
84021;SDS011;74108;48.636;9.492;2023-11-19T07:52:04;0.55;;;0.40;;
84021;SDS011;74108;48.636;9.492;2023-11-19T07:54:29;1.42;;;0.30;;
84021;SDS011;74108;48.636;9.492;2023-11-19T07:56:55;0.82;;;0.40;;
84021;SDS011;74108;48.636;9.492;2023-11-19T07:59:20;0.40;;;0.28;;
84021;SDS011;74108;48.636;9.492;2023-11-19T08:01:46;0.63;;;0.40;;
84021;SDS011;74108;48.636;9.492;2023-11-19T08:04:12;1.48;;;0.40;;
84021;SDS011;74108;48.636;9.492;2023-11-19T08:06:37;0.57;;;0.32;;
84021;SDS011;74108;48.636;9.492;2023-11-19T08:09:02;1.55;;;0.55;;
84021;SDS011;74108;48.636;9.492;2023-11-19T08:11:28;0.28;;;0.25;;
84021;SDS011;74108;48.636;9.492;2023-11-19T08:13:53;1.73;;;0.68;;
84021;SDS011;74108;48.636;9.492;2023-11-19T08:16:19;0.98;;;0.70;;
84021;SDS011;74108;48.636;9.492;2023-11-19T08:18:44;0.80;;;0.45;;
84021;SDS011;74108;48.636;9.492;2023-11-19T08:21:10;0.40;;;0.38;;
84021;SDS011;74108;48.636;9.492;2023-11-19T08:23:36;0.70;;;0.50;;
84021;SDS011;74108;48.636;9.492;2023-11-19T08:26:02;0.68;;;0.45;;
84021;SDS011;74108;48.636;9.492;2023-11-19T08:28:27;1.10;;;0.80;;
84021;SDS011;74108;48.636;9.492;2023-11-19T08:30:53;0.47;;;0.40;;
84021;SDS011;74108;48.636;9.492;2023-11-19T08:33:18;0.50;;;0.50;;
84021;SDS011;74108;48.636;9.492;2023-11-19T08:35:44;0.65;;;0.50;;
84021;SDS011;74108;48.636;9.492;2023-11-19T08:38:10;0.88;;;0.60;;
84021;SDS011;74108;48.636;9.492;2023-11-19T08:40:35;0.57;;;0.38;;
84021;SDS011;74108;48.636;9.492;2023-11-19T08:43:01;1.13;;;0.35;;
84021;SDS011;74108;48.636;9.492;2023-11-19T08:45:26;0.73;;;0.38;;
84021;SDS011;74108;48.636;9.492;2023-11-19T08:47:51;0.82;;;0.50;;
84021;SDS011;74108;48.636;9.492;2023-11-19T08:50:17;0.73;;;0.63;;
84021;SDS011;74108;48.636;9.492;2023-11-19T08:52:42;0.55;;;0.55;;
84021;SDS011;74108;48.636;9.492;2023-11-19T08:55:07;1.77;;;0.52;;
84021;SDS011;74108;48.636;9.492;2023-11-19T08:57:37;1.13;;;0.63;;
84021;SDS011;74108;48.636;9.492;2023-11-19T09:00:05;0.60;;;0.55;;
84021;SDS011;74108;48.636;9.492;2023-11-19T09:02:37;0.52;;;0.52;;
84021;SDS011;74108;48.636;9.492;2023-11-19T09:05:04;1.58;;;0.73;;
84021;SDS011;74108;48.636;9.492;2023-11-19T09:07:30;0.93;;;0.70;;
84021;SDS011;74108;48.636;9.492;2023-11-19T09:09:56;1.55;;;0.43;;
84021;SDS011;74108;48.636;9.492;2023-11-19T09:12:22;1.33;;;0.80;;
84021;SDS011;74108;48.636;9.492;2023-11-19T09:14:47;0.85;;;0.52;;
84021;SDS011;74108;48.636;9.492;2023-11-19T09:17:14;2.65;;;1.48;;
84021;SDS011;74108;48.636;9.492;2023-11-19T09:19:40;0.85;;;0.55;;
84021;SDS011;74108;48.636;9.492;2023-11-19T09:22:05;0.73;;;0.60;;
84021;SDS011;74108;48.636;9.492;2023-11-19T09:24:31;0.55;;;0.40;;
84021;SDS011;74108;48.636;9.492;2023-11-19T09:26:56;0.68;;;0.55;;
84021;SDS011;74108;48.636;9.492;2023-11-19T09:29:22;0.55;;;0.55;;
84021;SDS011;74108;48.636;9.492;2023-11-19T09:31:47;1.95;;;0.82;;
84021;SDS011;74108;48.636;9.492;2023-11-19T09:34:13;1.40;;;0.80;;
84021;SDS011;74108;48.636;9.492;2023-11-19T09:36:38;0.75;;;0.50;;
84021;SDS011;74108;48.636;9.492;2023-11-19T09:39:08;0.52;;;0.47;;
84021;SDS011;74108;48.636;9.492;2023-11-19T09:41:34;0.90;;;0.73;;
84021;SDS011;74108;48.636;9.492;2023-11-19T09:44:00;2.65;;;0.70;;
84021;SDS011;74108;48.636;9.492;2023-11-19T09:46:25;1.33;;;0.73;;
84021;SDS011;74108;48.636;9.492;2023-11-19T09:48:54;1.48;;;0.50;;
84021;SDS011;74108;48.636;9.492;2023-11-19T09:51:21;0.95;;;0.70;;
84021;SDS011;74108;48.636;9.492;2023-11-19T09:53:47;1.48;;;0.88;;
84021;SDS011;74108;48.636;9.492;2023-11-19T09:56:13;2.17;;;1.10;;
84021;SDS011;74108;48.636;9.492;2023-11-19T09:58:39;1.13;;;0.75;;
84021;SDS011;74108;48.636;9.492;2023-11-19T10:01:05;0.47;;;0.47;;
84021;SDS011;74108;48.636;9.492;2023-11-19T10:03:35;0.77;;;0.60;;
84021;SDS011;74108;48.636;9.492;2023-11-19T10:06:03;0.50;;;0.50;;
84021;SDS011;74108;48.636;9.492;2023-11-19T10:08:31;0.65;;;0.55;;
84021;SDS011;74108;48.636;9.492;2023-11-19T10:10:57;0.60;;;0.60;;
84021;SDS011;74108;48.636;9.492;2023-11-19T10:13:26;0.95;;;0.60;;
84021;SDS011;74108;48.636;9.492;2023-11-19T10:15:53;0.40;;;0.40;;
84021;SDS011;74108;48.636;9.492;2023-11-19T10:18:23;1.38;;;0.82;;
84021;SDS011;74108;48.636;9.492;2023-11-19T10:20:50;0.73;;;0.57;;
84021;SDS011;74108;48.636;9.492;2023-11-19T10:23:15;0.50;;;0.50;;
84021;SDS011;74108;48.636;9.492;2023-11-19T10:25:40;0.80;;;0.63;;
84021;SDS011;74108;48.636;9.492;2023-11-19T10:28:06;1.00;;;0.63;;
84021;SDS011;74108;48.636;9.492;2023-11-19T10:30:31;0.52;;;0.52;;
84021;SDS011;74108;48.636;9.492;2023-11-19T10:35:31;0.30;;;0.30;;
84021;SDS011;74108;48.636;9.492;2023-11-19T10:38:01;0.70;;;0.70;;
84021;SDS011;74108;48.636;9.492;2023-11-19T10:40:42;1.05;;;0.70;;
84021;SDS011;74108;48.636;9.492;2023-11-19T10:43:08;1.48;;;0.82;;
84021;SDS011;74108;48.636;9.492;2023-11-19T10:45:37;1.30;;;0.80;;
84021;SDS011;74108;48.636;9.492;2023-11-19T10:48:04;1.15;;;0.75;;
84021;SDS011;74108;48.636;9.492;2023-11-19T10:50:32;0.70;;;0.60;;
84021;SDS011;74108;48.636;9.492;2023-11-19T10:53:01;1.88;;;0.70;;
84021;SDS011;74108;48.636;9.492;2023-11-19T10:55:29;0.75;;;0.60;;
84021;SDS011;74108;48.636;9.492;2023-11-19T10:58:04;1.13;;;0.90;;
84021;SDS011;74108;48.636;9.492;2023-11-19T11:00:34;0.60;;;0.60;;
84021;SDS011;74108;48.636;9.492;2023-11-19T11:03:17;0.95;;;0.80;;
84021;SDS011;74108;48.636;9.492;2023-11-19T11:05:49;1.10;;;0.75;;
84021;SDS011;74108;48.636;9.492;2023-11-19T11:08:15;1.25;;;1.00;;
84021;SDS011;74108;48.636;9.492;2023-11-19T11:10:45;1.17;;;0.70;;
84021;SDS011;74108;48.636;9.492;2023-11-19T11:13:24;1.85;;;0.90;;
84021;SDS011;74108;48.636;9.492;2023-11-19T11:15:55;1.73;;;0.93;;
84021;SDS011;74108;48.636;9.492;2023-11-19T11:18:21;1.30;;;0.90;;
84021;SDS011;74108;48.636;9.492;2023-11-19T11:20:48;1.83;;;0.50;;
84021;SDS011;74108;48.636;9.492;2023-11-19T11:23:24;1.15;;;0.93;;
84021;SDS011;74108;48.636;9.492;2023-11-19T11:31:40;2.08;;;1.27;;
84021;SDS011;74108;48.636;9.492;2023-11-19T11:39:13;1.80;;;1.10;;
84021;SDS011;74108;48.636;9.492;2023-11-19T11:41:40;2.15;;;0.90;;
84021;SDS011;74108;48.636;9.492;2023-11-19T11:44:05;1.67;;;0.90;;
84021;SDS011;74108;48.636;9.492;2023-11-19T11:57:04;1.13;;;0.90;;
84021;SDS011;74108;48.636;9.492;2023-11-19T11:59:52;2.42;;;1.10;;
84021;SDS011;74108;48.636;9.492;2023-11-19T12:02:18;1.20;;;0.98;;
84021;SDS011;74108;48.636;9.492;2023-11-19T12:04:47;1.70;;;1.23;;
84021;SDS011;74108;48.636;9.492;2023-11-19T12:09:42;1.58;;;1.00;;
84021;SDS011;74108;48.636;9.492;2023-11-19T12:12:28;4.32;;;1.05;;
84021;SDS011;74108;48.636;9.492;2023-11-19T12:17:36;2.15;;;0.90;;
84021;SDS011;74108;48.636;9.492;2023-11-19T12:20:07;2.80;;;1.00;;
84021;SDS011;74108;48.636;9.492;2023-11-19T12:22:38;0.50;;;0.50;;
84021;SDS011;74108;48.636;9.492;2023-11-19T12:25:05;1.48;;;0.80;;
84021;SDS011;74108;48.636;9.492;2023-11-19T12:27:32;1.15;;;0.70;;
84021;SDS011;74108;48.636;9.492;2023-11-19T12:29:59;0.77;;;0.55;;
84021;SDS011;74108;48.636;9.492;2023-11-19T12:32:24;2.95;;;0.60;;
84021;SDS011;74108;48.636;9.492;2023-11-19T12:34:50;1.00;;;0.65;;
84021;SDS011;74108;48.636;9.492;2023-11-19T12:37:15;2.05;;;0.77;;
84021;SDS011;74108;48.636;9.492;2023-11-19T12:39:41;0.98;;;0.50;;
84021;SDS011;74108;48.636;9.492;2023-11-19T12:42:06;0.70;;;0.50;;
84021;SDS011;74108;48.636;9.492;2023-11-19T12:44:31;1.60;;;0.60;;
84021;SDS011;74108;48.636;9.492;2023-11-19T12:47:02;0.80;;;0.60;;
84021;SDS011;74108;48.636;9.492;2023-11-19T12:49:36;0.90;;;0.30;;
84021;SDS011;74108;48.636;9.492;2023-11-19T12:52:01;0.35;;;0.35;;
84021;SDS011;74108;48.636;9.492;2023-11-19T12:54:36;0.82;;;0.40;;
84021;SDS011;74108;48.636;9.492;2023-11-19T12:57:02;0.77;;;0.40;;
84021;SDS011;74108;48.636;9.492;2023-11-19T12:59:28;0.30;;;0.30;;
84021;SDS011;74108;48.636;9.492;2023-11-19T13:01:57;0.65;;;0.40;;
84021;SDS011;74108;48.636;9.492;2023-11-19T13:04:23;1.80;;;0.60;;
84021;SDS011;74108;48.636;9.492;2023-11-19T13:06:53;1.00;;;0.85;;
84021;SDS011;74108;48.636;9.492;2023-11-19T13:09:22;1.63;;;0.60;;
84021;SDS011;74108;48.636;9.492;2023-11-19T13:11:49;0.73;;;0.60;;
84021;SDS011;74108;48.636;9.492;2023-11-19T13:14:15;0.60;;;0.60;;
84021;SDS011;74108;48.636;9.492;2023-11-19T13:16:41;1.63;;;0.60;;
84021;SDS011;74108;48.636;9.492;2023-11-19T13:19:07;1.00;;;0.60;;
84021;SDS011;74108;48.636;9.492;2023-11-19T13:21:33;0.77;;;0.50;;
84021;SDS011;74108;48.636;9.492;2023-11-19T13:23:59;0.95;;;0.80;;
84021;SDS011;74108;48.636;9.492;2023-11-19T13:26:25;1.02;;;0.70;;
84021;SDS011;74108;48.636;9.492;2023-11-19T13:28:50;1.38;;;0.70;;
84021;SDS011;74108;48.636;9.492;2023-11-19T13:31:16;0.60;;;0.60;;
84021;SDS011;74108;48.636;9.492;2023-11-19T13:33:42;0.65;;;0.60;;
84021;SDS011;74108;48.636;9.492;2023-11-19T13:36:07;1.85;;;0.65;;
84021;SDS011;74108;48.636;9.492;2023-11-19T13:38:34;1.33;;;0.80;;
84021;SDS011;74108;48.636;9.492;2023-11-19T13:41:00;1.77;;;0.90;;
84021;SDS011;74108;48.636;9.492;2023-11-19T13:43:26;1.23;;;0.70;;
84021;SDS011;74108;48.636;9.492;2023-11-19T13:45:54;1.67;;;0.70;;
84021;SDS011;74108;48.636;9.492;2023-11-19T13:48:20;0.73;;;0.60;;
84021;SDS011;74108;48.636;9.492;2023-11-19T13:50:53;0.60;;;0.60;;
84021;SDS011;74108;48.636;9.492;2023-11-19T13:53:26;2.80;;;0.90;;
84021;SDS011;74108;48.636;9.492;2023-11-19T13:55:57;0.98;;;0.80;;
84021;SDS011;74108;48.636;9.492;2023-11-19T13:58:22;1.92;;;0.90;;
84021;SDS011;74108;48.636;9.492;2023-11-19T14:00:48;0.82;;;0.68;;
84021;SDS011;74108;48.636;9.492;2023-11-19T14:03:13;1.38;;;0.88;;
84021;SDS011;74108;48.636;9.492;2023-11-19T14:05:39;1.30;;;0.80;;
84021;SDS011;74108;48.636;9.492;2023-11-19T14:08:06;1.42;;;0.88;;
84021;SDS011;74108;48.636;9.492;2023-11-19T14:10:38;1.85;;;0.80;;
84021;SDS011;74108;48.636;9.492;2023-11-19T14:13:05;1.10;;;1.00;;
84021;SDS011;74108;48.636;9.492;2023-11-19T14:15:31;1.13;;;0.80;;
84021;SDS011;74108;48.636;9.492;2023-11-19T14:17:56;1.58;;;1.10;;
84021;SDS011;74108;48.636;9.492;2023-11-19T14:20:21;1.02;;;0.80;;
84021;SDS011;74108;48.636;9.492;2023-11-19T14:22:47;2.17;;;0.88;;
84021;SDS011;74108;48.636;9.492;2023-11-19T14:25:14;1.15;;;0.75;;
84021;SDS011;74108;48.636;9.492;2023-11-19T14:27:40;2.58;;;0.80;;
84021;SDS011;74108;48.636;9.492;2023-11-19T14:30:08;3.90;;;0.95;;
84021;SDS011;74108;48.636;9.492;2023-11-19T14:32:36;2.17;;;0.82;;
84021;SDS011;74108;48.636;9.492;2023-11-19T14:35:02;1.45;;;0.80;;
84021;SDS011;74108;48.636;9.492;2023-11-19T14:37:29;2.05;;;1.10;;
84021;SDS011;74108;48.636;9.492;2023-11-19T14:39:56;1.27;;;0.90;;
84021;SDS011;74108;48.636;9.492;2023-11-19T14:42:22;3.42;;;1.02;;
84021;SDS011;74108;48.636;9.492;2023-11-19T14:44:49;1.35;;;0.77;;
84021;SDS011;74108;48.636;9.492;2023-11-19T14:47:14;3.20;;;0.90;;
84021;SDS011;74108;48.636;9.492;2023-11-19T14:49:39;1.25;;;0.80;;
84021;SDS011;74108;48.636;9.492;2023-11-19T14:52:05;1.88;;;0.95;;
84021;SDS011;74108;48.636;9.492;2023-11-19T14:54:30;1.65;;;1.02;;
84021;SDS011;74108;48.636;9.492;2023-11-19T14:56:56;1.13;;;0.82;;
84021;SDS011;74108;48.636;9.492;2023-11-19T14:59:25;0.95;;;0.88;;
84021;SDS011;74108;48.636;9.492;2023-11-19T15:01:50;1.30;;;0.80;;
84021;SDS011;74108;48.636;9.492;2023-11-19T15:04:16;0.47;;;0.47;;
84021;SDS011;74108;48.636;9.492;2023-11-19T15:06:42;1.13;;;0.88;;
84021;SDS011;74108;48.636;9.492;2023-11-19T15:09:07;1.48;;;0.85;;
84021;SDS011;74108;48.636;9.492;2023-11-19T15:11:34;0.93;;;0.70;;
84021;SDS011;74108;48.636;9.492;2023-11-19T15:14:00;0.77;;;0.77;;
84021;SDS011;74108;48.636;9.492;2023-11-19T15:16:26;1.98;;;0.90;;
84021;SDS011;74108;48.636;9.492;2023-11-19T15:18:57;0.80;;;0.65;;
84021;SDS011;74108;48.636;9.492;2023-11-19T15:21:25;1.58;;;0.82;;